sensor_id;sensor_type;location;lat;lon;timestamp;temperature;humidity
22503;DHT22;11418;48.118;9.992;2023-09-19T00:01:33;16.20;99.90
22503;DHT22;11418;48.118;9.992;2023-09-19T00:05:35;16.10;99.90
22503;DHT22;11418;48.118;9.992;2023-09-19T00:09:36;16.10;99.90
22503;DHT22;11418;48.118;9.992;2023-09-19T00:13:39;16.10;99.90
22503;DHT22;11418;48.118;9.992;2023-09-19T00:17:39;16.00;99.90
22503;DHT22;11418;48.118;9.992;2023-09-19T00:21:40;16.00;99.90
22503;DHT22;11418;48.118;9.992;2023-09-19T00:25:42;16.10;99.90
22503;DHT22;11418;48.118;9.992;2023-09-19T00:29:42;16.10;99.90
22503;DHT22;11418;48.118;9.992;2023-09-19T00:33:43;16.20;99.90
22503;DHT22;11418;48.118;9.992;2023-09-19T00:37:43;15.90;99.90
22503;DHT22;11418;48.118;9.992;2023-09-19T00:41:44;15.80;99.90
22503;DHT22;11418;48.118;9.992;2023-09-19T00:45:48;15.70;99.90
22503;DHT22;11418;48.118;9.992;2023-09-19T00:49:49;15.40;99.90
22503;DHT22;11418;48.118;9.992;2023-09-19T00:53:54;15.10;99.90
22503;DHT22;11418;48.118;9.992;2023-09-19T00:57:56;14.90;99.90
22503;DHT22;11418;48.118;9.992;2023-09-19T01:01:56;15.00;99.90
22503;DHT22;11418;48.118;9.992;2023-09-19T01:05:57;15.20;99.90
22503;DHT22;11418;48.118;9.992;2023-09-19T01:10:02;15.20;99.90
22503;DHT22;11418;48.118;9.992;2023-09-19T01:14:50;15.20;99.90
22503;DHT22;11418;48.118;9.992;2023-09-19T01:28:06;15.40;99.90
22503;DHT22;11418;48.118;9.992;2023-09-19T01:32:15;15.50;99.90
22503;DHT22;11418;48.118;9.992;2023-09-19T01:36:17;15.70;99.90
22503;DHT22;11418;48.118;9.992;2023-09-19T01:40:19;15.90;99.90
22503;DHT22;11418;48.118;9.992;2023-09-19T01:44:44;16.00;99.90
22503;DHT22;11418;48.118;9.992;2023-09-19T01:49:10;16.10;99.90
22503;DHT22;11418;48.118;9.992;2023-09-19T01:53:23;16.20;99.90
22503;DHT22;11418;48.118;9.992;2023-09-19T01:57:30;16.10;99.90
22503;DHT22;11418;48.118;9.992;2023-09-19T02:01:33;16.00;99.90
22503;DHT22;11418;48.118;9.992;2023-09-19T02:05:35;15.90;99.90
22503;DHT22;11418;48.118;9.992;2023-09-19T02:09:35;15.90;99.90
22503;DHT22;11418;48.118;9.992;2023-09-19T02:13:38;15.80;99.90
22503;DHT22;11418;48.118;9.992;2023-09-19T02:17:39;15.90;99.90
22503;DHT22;11418;48.118;9.992;2023-09-19T02:21:40;15.80;99.90
22503;DHT22;11418;48.118;9.992;2023-09-19T02:25:40;15.80;99.90
22503;DHT22;11418;48.118;9.992;2023-09-19T02:29:42;15.60;99.90
22503;DHT22;11418;48.118;9.992;2023-09-19T02:33:42;15.90;99.90
22503;DHT22;11418;48.118;9.992;2023-09-19T02:37:43;15.70;99.90
22503;DHT22;11418;48.118;9.992;2023-09-19T02:41:45;15.70;99.90
22503;DHT22;11418;48.118;9.992;2023-09-19T02:45:46;15.80;99.90
22503;DHT22;11418;48.118;9.992;2023-09-19T02:49:47;15.80;99.90
22503;DHT22;11418;48.118;9.992;2023-09-19T02:53:49;15.90;99.90
22503;DHT22;11418;48.118;9.992;2023-09-19T02:57:51;15.90;99.90
22503;DHT22;11418;48.118;9.992;2023-09-19T03:01:52;15.90;99.90
22503;DHT22;11418;48.118;9.992;2023-09-19T03:05:54;15.90;99.90
22503;DHT22;11418;48.118;9.992;2023-09-19T03:09:55;16.10;99.90
22503;DHT22;11418;48.118;9.992;2023-09-19T03:13:55;16.00;99.90
22503;DHT22;11418;48.118;9.992;2023-09-19T03:17:56;16.10;99.90
22503;DHT22;11418;48.118;9.992;2023-09-19T03:21:58;16.00;99.90
22503;DHT22;11418;48.118;9.992;2023-09-19T03:25:58;15.90;99.90
22503;DHT22;11418;48.118;9.992;2023-09-19T03:29:59;15.90;99.90
22503;DHT22;11418;48.118;9.992;2023-09-19T03:33:59;15.80;99.90
22503;DHT22;11418;48.118;9.992;2023-09-19T03:38:00;15.80;99.90
22503;DHT22;11418;48.118;9.992;2023-09-19T03:42:02;15.90;99.90
22503;DHT22;11418;48.118;9.992;2023-09-19T03:46:05;15.80;99.90
22503;DHT22;11418;48.118;9.992;2023-09-19T03:50:06;15.90;99.90
22503;DHT22;11418;48.118;9.992;2023-09-19T03:54:15;15.90;99.90
22503;DHT22;11418;48.118;9.992;2023-09-19T03:58:17;15.80;99.90
22503;DHT22;11418;48.118;9.992;2023-09-19T04:02:17;15.90;99.90
22503;DHT22;11418;48.118;9.992;2023-09-19T04:06:24;15.90;99.90
22503;DHT22;11418;48.118;9.992;2023-09-19T04:10:25;15.90;99.90
22503;DHT22;11418;48.118;9.992;2023-09-19T04:14:25;15.80;99.90
22503;DHT22;11418;48.118;9.992;2023-09-19T04:18:26;15.90;99.90
22503;DHT22;11418;48.118;9.992;2023-09-19T04:22:27;15.80;99.90
22503;DHT22;11418;48.118;9.992;2023-09-19T04:26:27;15.70;99.90
22503;DHT22;11418;48.118;9.992;2023-09-19T04:30:28;15.80;99.90
22503;DHT22;11418;48.118;9.992;2023-09-19T04:34:28;15.90;99.90
22503;DHT22;11418;48.118;9.992;2023-09-19T04:38:29;15.80;99.90
22503;DHT22;11418;48.118;9.992;2023-09-19T04:42:29;15.70;99.90
22503;DHT22;11418;48.118;9.992;2023-09-19T04:46:30;15.70;99.90
22503;DHT22;11418;48.118;9.992;2023-09-19T04:50:31;15.60;99.90
22503;DHT22;11418;48.118;9.992;2023-09-19T04:54:31;15.60;99.90
22503;DHT22;11418;48.118;9.992;2023-09-19T04:58:32;15.60;99.90
22503;DHT22;11418;48.118;9.992;2023-09-19T05:02:32;15.50;99.90
22503;DHT22;11418;48.118;9.992;2023-09-19T05:06:35;15.50;99.90
22503;DHT22;11418;48.118;9.992;2023-09-19T05:10:36;15.40;99.90
22503;DHT22;11418;48.118;9.992;2023-09-19T05:14:39;15.20;99.90
22503;DHT22;11418;48.118;9.992;2023-09-19T05:18:40;15.10;99.90
22503;DHT22;11418;48.118;9.992;2023-09-19T05:22:42;15.10;99.90
22503;DHT22;11418;48.118;9.992;2023-09-19T05:26:43;15.20;99.90
22503;DHT22;11418;48.118;9.992;2023-09-19T05:30:44;15.30;99.90
22503;DHT22;11418;48.118;9.992;2023-09-19T05:34:45;15.20;99.90
22503;DHT22;11418;48.118;9.992;2023-09-19T05:38:46;15.30;99.90
22503;DHT22;11418;48.118;9.992;2023-09-19T05:42:50;15.40;99.90
22503;DHT22;11418;48.118;9.992;2023-09-19T05:46:51;15.50;99.90
22503;DHT22;11418;48.118;9.992;2023-09-19T05:50:52;15.80;99.90
22503;DHT22;11418;48.118;9.992;2023-09-19T05:54:52;15.80;99.90
22503;DHT22;11418;48.118;9.992;2023-09-19T05:58:53;15.60;99.90
22503;DHT22;11418;48.118;9.992;2023-09-19T06:02:55;15.40;99.90
22503;DHT22;11418;48.118;9.992;2023-09-19T06:06:55;15.50;99.90
22503;DHT22;11418;48.118;9.992;2023-09-19T06:10:56;15.50;99.90
22503;DHT22;11418;48.118;9.992;2023-09-19T06:14:57;15.60;99.90
22503;DHT22;11418;48.118;9.992;2023-09-19T06:18:57;15.70;99.90
22503;DHT22;11418;48.118;9.992;2023-09-19T06:23:00;15.60;99.90
22503;DHT22;11418;48.118;9.992;2023-09-19T06:27:02;15.60;99.90
22503;DHT22;11418;48.118;9.992;2023-09-19T06:31:04;15.50;99.90
22503;DHT22;11418;48.118;9.992;2023-09-19T06:35:14;15.60;99.90
22503;DHT22;11418;48.118;9.992;2023-09-19T06:39:15;15.70;99.90
22503;DHT22;11418;48.118;9.992;2023-09-19T06:43:15;16.10;99.90
22503;DHT22;11418;48.118;9.992;2023-09-19T06:47:16;16.40;99.90
22503;DHT22;11418;48.118;9.992;2023-09-19T06:51:16;16.60;99.90
22503;DHT22;11418;48.118;9.992;2023-09-19T06:55:18;17.00;99.90
22503;DHT22;11418;48.118;9.992;2023-09-19T06:59:20;17.20;99.90
22503;DHT22;11418;48.118;9.992;2023-09-19T07:03:20;17.20;99.90
22503;DHT22;11418;48.118;9.992;2023-09-19T07:07:23;17.10;99.90
22503;DHT22;11418;48.118;9.992;2023-09-19T07:11:24;16.90;99.90
22503;DHT22;11418;48.118;9.992;2023-09-19T07:15:25;16.80;99.90
22503;DHT22;11418;48.118;9.992;2023-09-19T07:19:26;16.80;99.90
22503;DHT22;11418;48.118;9.992;2023-09-19T07:23:31;17.10;99.90
22503;DHT22;11418;48.118;9.992;2023-09-19T07:27:35;17.20;99.90
22503;DHT22;11418;48.118;9.992;2023-09-19T07:31:35;17.50;99.90
22503;DHT22;11418;48.118;9.992;2023-09-19T07:35:36;17.90;99.90
22503;DHT22;11418;48.118;9.992;2023-09-19T07:39:36;18.50;99.90
22503;DHT22;11418;48.118;9.992;2023-09-19T07:43:37;18.80;99.90
22503;DHT22;11418;48.118;9.992;2023-09-19T07:47:47;18.90;99.90
22503;DHT22;11418;48.118;9.992;2023-09-19T07:51:48;19.10;99.90
22503;DHT22;11418;48.118;9.992;2023-09-19T07:55:48;19.00;99.90
22503;DHT22;11418;48.118;9.992;2023-09-19T07:59:49;19.00;99.90
22503;DHT22;11418;48.118;9.992;2023-09-19T08:03:49;18.90;99.90
22503;DHT22;11418;48.118;9.992;2023-09-19T08:07:50;19.00;99.90
22503;DHT22;11418;48.118;9.992;2023-09-19T08:11:51;19.30;99.90
22503;DHT22;11418;48.118;9.992;2023-09-19T08:15:52;19.30;99.90
22503;DHT22;11418;48.118;9.992;2023-09-19T08:19:55;19.40;99.90
22503;DHT22;11418;48.118;9.992;2023-09-19T08:23:55;19.60;99.90
22503;DHT22;11418;48.118;9.992;2023-09-19T08:27:57;19.90;99.90
22503;DHT22;11418;48.118;9.992;2023-09-19T08:32:00;20.00;99.90
22503;DHT22;11418;48.118;9.992;2023-09-19T08:36:01;19.90;99.90
22503;DHT22;11418;48.118;9.992;2023-09-19T08:40:04;20.20;99.90
22503;DHT22;11418;48.118;9.992;2023-09-19T08:44:09;19.80;99.90
22503;DHT22;11418;48.118;9.992;2023-09-19T08:48:23;20.10;99.90
22503;DHT22;11418;48.118;9.992;2023-09-19T08:52:28;20.10;99.90
22503;DHT22;11418;48.118;9.992;2023-09-19T08:56:29;20.10;99.90
22503;DHT22;11418;48.118;9.992;2023-09-19T09:00:30;20.40;99.90
22503;DHT22;11418;48.118;9.992;2023-09-19T09:04:33;20.70;99.90
22503;DHT22;11418;48.118;9.992;2023-09-19T09:08:34;20.80;99.90
22503;DHT22;11418;48.118;9.992;2023-09-19T09:12:35;21.30;99.90
22503;DHT22;11418;48.118;9.992;2023-09-19T09:16:39;21.60;99.90
22503;DHT22;11418;48.118;9.992;2023-09-19T09:20:40;21.30;99.90
22503;DHT22;11418;48.118;9.992;2023-09-19T09:24:55;21.10;99.90
22503;DHT22;11418;48.118;9.992;2023-09-19T09:28:58;21.30;99.90
22503;DHT22;11418;48.118;9.992;2023-09-19T09:33:08;21.30;99.90
22503;DHT22;11418;48.118;9.992;2023-09-19T09:37:15;21.30;99.90
22503;DHT22;11418;48.118;9.992;2023-09-19T09:41:16;21.50;99.90
22503;DHT22;11418;48.118;9.992;2023-09-19T09:45:27;21.40;99.90
22503;DHT22;11418;48.118;9.992;2023-09-19T09:49:34;22.30;99.90
22503;DHT22;11418;48.118;9.992;2023-09-19T09:53:35;22.20;99.90
22503;DHT22;11418;48.118;9.992;2023-09-19T09:57:37;22.30;99.90
22503;DHT22;11418;48.118;9.992;2023-09-19T10:01:47;23.20;99.90
22503;DHT22;11418;48.118;9.992;2023-09-19T10:05:53;23.70;99.90
22503;DHT22;11418;48.118;9.992;2023-09-19T10:09:55;23.40;99.90
22503;DHT22;11418;48.118;9.992;2023-09-19T10:14:07;23.30;99.90
22503;DHT22;11418;48.118;9.992;2023-09-19T10:18:10;22.80;99.90
22503;DHT22;11418;48.118;9.992;2023-09-19T10:22:18;22.70;99.90
22503;DHT22;11418;48.118;9.992;2023-09-19T10:26:25;22.50;99.90
22503;DHT22;11418;48.118;9.992;2023-09-19T10:30:28;22.80;99.90
22503;DHT22;11418;48.118;9.992;2023-09-19T10:34:34;23.50;99.90
22503;DHT22;11418;48.118;9.992;2023-09-19T10:38:36;24.60;99.90
22503;DHT22;11418;48.118;9.992;2023-09-19T10:42:42;26.40;99.90
22503;DHT22;11418;48.118;9.992;2023-09-19T10:46:42;27.10;99.90
22503;DHT22;11418;48.118;9.992;2023-09-19T10:50:50;26.90;99.90
22503;DHT22;11418;48.118;9.992;2023-09-19T10:54:54;27.10;99.90
22503;DHT22;11418;48.118;9.992;2023-09-19T10:59:13;25.40;99.90
22503;DHT22;11418;48.118;9.992;2023-09-19T11:07:17;22.90;99.90
22503;DHT22;11418;48.118;9.992;2023-09-19T11:11:48;21.90;99.90
22503;DHT22;11418;48.118;9.992;2023-09-19T11:24:28;19.50;99.90
22503;DHT22;11418;48.118;9.992;2023-09-19T11:28:31;19.60;99.90
22503;DHT22;11418;48.118;9.992;2023-09-19T11:49:46;22.10;99.90
22503;DHT22;11418;48.118;9.992;2023-09-19T11:53:50;21.30;99.90
22503;DHT22;11418;48.118;9.992;2023-09-19T11:57:55;20.80;99.90
22503;DHT22;11418;48.118;9.992;2023-09-19T12:01:57;20.70;99.90
22503;DHT22;11418;48.118;9.992;2023-09-19T12:05:59;21.10;99.90
22503;DHT22;11418;48.118;9.992;2023-09-19T12:10:06;23.50;99.90
22503;DHT22;11418;48.118;9.992;2023-09-19T12:14:21;25.40;99.90
22503;DHT22;11418;48.118;9.992;2023-09-19T12:18:29;25.90;99.90
22503;DHT22;11418;48.118;9.992;2023-09-19T12:22:39;24.30;99.90
22503;DHT22;11418;48.118;9.992;2023-09-19T12:26:41;23.00;99.90
22503;DHT22;11418;48.118;9.992;2023-09-19T12:30:42;22.80;99.90
22503;DHT22;11418;48.118;9.992;2023-09-19T12:34:50;23.30;99.90
22503;DHT22;11418;48.118;9.992;2023-09-19T12:38:52;23.50;99.90
22503;DHT22;11418;48.118;9.992;2023-09-19T12:42:54;25.10;99.90
22503;DHT22;11418;48.118;9.992;2023-09-19T12:47:15;27.70;99.90
22503;DHT22;11418;48.118;9.992;2023-09-19T12:51:20;29.50;99.90
22503;DHT22;11418;48.118;9.992;2023-09-19T12:55:30;28.70;99.00
22503;DHT22;11418;48.118;9.992;2023-09-19T12:59:33;28.90;98.00
22503;DHT22;11418;48.118;9.992;2023-09-19T13:03:36;29.60;96.20
22503;DHT22;11418;48.118;9.992;2023-09-19T13:07:43;30.50;94.10
22503;DHT22;11418;48.118;9.992;2023-09-19T13:11:46;29.90;93.20
22503;DHT22;11418;48.118;9.992;2023-09-19T13:15:52;30.30;90.60
22503;DHT22;11418;48.118;9.992;2023-09-19T13:19:52;31.50;90.00
22503;DHT22;11418;48.118;9.992;2023-09-19T13:23:56;31.10;89.00
22503;DHT22;11418;48.118;9.992;2023-09-19T13:28:16;31.20;87.10
22503;DHT22;11418;48.118;9.992;2023-09-19T13:32:16;30.40;85.70
22503;DHT22;11418;48.118;9.992;2023-09-19T13:36:17;31.00;87.90
22503;DHT22;11418;48.118;9.992;2023-09-19T13:40:19;31.40;85.50
22503;DHT22;11418;48.118;9.992;2023-09-19T13:44:19;31.80;81.40
22503;DHT22;11418;48.118;9.992;2023-09-19T13:48:20;30.50;82.40
22503;DHT22;11418;48.118;9.992;2023-09-19T13:52:22;30.60;82.90
22503;DHT22;11418;48.118;9.992;2023-09-19T13:56:23;30.90;81.10
22503;DHT22;11418;48.118;9.992;2023-09-19T14:00:25;31.70;78.30
22503;DHT22;11418;48.118;9.992;2023-09-19T14:04:25;31.30;77.50
22503;DHT22;11418;48.118;9.992;2023-09-19T14:08:26;31.60;78.90
22503;DHT22;11418;48.118;9.992;2023-09-19T14:12:26;31.30;77.50
22503;DHT22;11418;48.118;9.992;2023-09-19T14:16:27;31.20;77.70
22503;DHT22;11418;48.118;9.992;2023-09-19T14:20:31;31.80;75.20
22503;DHT22;11418;48.118;9.992;2023-09-19T14:24:32;31.70;73.70
22503;DHT22;11418;48.118;9.992;2023-09-19T14:28:33;31.80;78.50
22503;DHT22;11418;48.118;9.992;2023-09-19T14:32:36;31.30;76.40
22503;DHT22;11418;48.118;9.992;2023-09-19T14:36:38;31.70;76.60
22503;DHT22;11418;48.118;9.992;2023-09-19T14:40:41;31.30;75.20
22503;DHT22;11418;48.118;9.992;2023-09-19T14:44:43;31.20;76.40
22503;DHT22;11418;48.118;9.992;2023-09-19T14:48:43;31.30;76.00
22503;DHT22;11418;48.118;9.992;2023-09-19T14:52:44;30.70;76.10
22503;DHT22;11418;48.118;9.992;2023-09-19T14:56:45;29.10;78.10
22503;DHT22;11418;48.118;9.992;2023-09-19T15:00:46;28.40;81.30
22503;DHT22;11418;48.118;9.992;2023-09-19T15:04:46;27.60;85.20
22503;DHT22;11418;48.118;9.992;2023-09-19T15:08:47;27.00;88.00
22503;DHT22;11418;48.118;9.992;2023-09-19T15:12:48;25.80;89.70
22503;DHT22;11418;48.118;9.992;2023-09-19T15:16:49;24.00;93.40
22503;DHT22;11418;48.118;9.992;2023-09-19T15:20:49;23.10;96.00
22503;DHT22;11418;48.118;9.992;2023-09-19T15:24:51;22.40;97.40
22503;DHT22;11418;48.118;9.992;2023-09-19T15:28:52;22.00;99.10
22503;DHT22;11418;48.118;9.992;2023-09-19T15:32:54;21.70;99.50
22503;DHT22;11418;48.118;9.992;2023-09-19T15:36:55;21.70;99.90
22503;DHT22;11418;48.118;9.992;2023-09-19T15:40:55;21.60;99.90
22503;DHT22;11418;48.118;9.992;2023-09-19T15:44:56;21.50;99.90
22503;DHT22;11418;48.118;9.992;2023-09-19T15:48:57;22.10;99.90
22503;DHT22;11418;48.118;9.992;2023-09-19T15:52:58;22.40;99.90
22503;DHT22;11418;48.118;9.992;2023-09-19T15:56:59;22.50;99.90
22503;DHT22;11418;48.118;9.992;2023-09-19T16:01:05;22.00;99.90
22503;DHT22;11418;48.118;9.992;2023-09-19T16:05:06;21.30;99.90
22503;DHT22;11418;48.118;9.992;2023-09-19T16:09:08;20.90;99.90
22503;DHT22;11418;48.118;9.992;2023-09-19T16:13:10;20.80;99.90
22503;DHT22;11418;48.118;9.992;2023-09-19T16:17:11;20.40;99.90
22503;DHT22;11418;48.118;9.992;2023-09-19T16:21:11;20.40;99.90
22503;DHT22;11418;48.118;9.992;2023-09-19T16:25:12;20.10;99.90
22503;DHT22;11418;48.118;9.992;2023-09-19T16:29:13;20.10;99.90
22503;DHT22;11418;48.118;9.992;2023-09-19T16:33:14;19.90;99.90
22503;DHT22;11418;48.118;9.992;2023-09-19T16:37:14;19.70;99.90
22503;DHT22;11418;48.118;9.992;2023-09-19T16:41:16;19.50;99.90
22503;DHT22;11418;48.118;9.992;2023-09-19T16:45:16;19.30;99.90
22503;DHT22;11418;48.118;9.992;2023-09-19T16:49:17;19.10;99.90
22503;DHT22;11418;48.118;9.992;2023-09-19T16:53:18;19.00;99.90
22503;DHT22;11418;48.118;9.992;2023-09-19T16:57:19;18.80;99.90
22503;DHT22;11418;48.118;9.992;2023-09-19T17:01:20;18.60;99.90
22503;DHT22;11418;48.118;9.992;2023-09-19T17:05:21;18.30;99.90
22503;DHT22;11418;48.118;9.992;2023-09-19T17:09:22;18.30;99.90
22503;DHT22;11418;48.118;9.992;2023-09-19T17:13:23;18.20;99.90
22503;DHT22;11418;48.118;9.992;2023-09-19T17:17:23;17.90;99.90
22503;DHT22;11418;48.118;9.992;2023-09-19T17:21:25;17.60;99.90
22503;DHT22;11418;48.118;9.992;2023-09-19T17:25:26;17.30;99.90
22503;DHT22;11418;48.118;9.992;2023-09-19T17:29:31;17.10;99.90
22503;DHT22;11418;48.118;9.992;2023-09-19T17:33:31;16.90;99.90
22503;DHT22;11418;48.118;9.992;2023-09-19T17:37:35;16.70;99.90
22503;DHT22;11418;48.118;9.992;2023-09-19T17:41:39;16.50;99.90
22503;DHT22;11418;48.118;9.992;2023-09-19T17:45:41;16.40;99.90
22503;DHT22;11418;48.118;9.992;2023-09-19T17:49:42;16.30;99.90
22503;DHT22;11418;48.118;9.992;2023-09-19T17:53:43;16.10;99.90
22503;DHT22;11418;48.118;9.992;2023-09-19T17:57:44;15.90;99.90
22503;DHT22;11418;48.118;9.992;2023-09-19T18:01:45;15.70;99.90
22503;DHT22;11418;48.118;9.992;2023-09-19T18:05:50;15.60;99.90
22503;DHT22;11418;48.118;9.992;2023-09-19T18:09:52;15.40;99.90
22503;DHT22;11418;48.118;9.992;2023-09-19T18:13:53;15.30;99.90
22503;DHT22;11418;48.118;9.992;2023-09-19T18:17:54;15.20;99.90
22503;DHT22;11418;48.118;9.992;2023-09-19T18:21:55;15.10;99.90
22503;DHT22;11418;48.118;9.992;2023-09-19T18:25:57;15.00;99.90
22503;DHT22;11418;48.118;9.992;2023-09-19T18:29:57;14.90;99.90
22503;DHT22;11418;48.118;9.992;2023-09-19T18:33:58;15.10;99.90
22503;DHT22;11418;48.118;9.992;2023-09-19T18:37:58;15.00;99.90
22503;DHT22;11418;48.118;9.992;2023-09-19T18:41:59;14.70;99.90
22503;DHT22;11418;48.118;9.992;2023-09-19T18:46:00;14.60;99.90
22503;DHT22;11418;48.118;9.992;2023-09-19T18:50:02;14.40;99.90
22503;DHT22;11418;48.118;9.992;2023-09-19T18:54:03;14.30;99.90
22503;DHT22;11418;48.118;9.992;2023-09-19T18:58:04;14.20;99.90
22503;DHT22;11418;48.118;9.992;2023-09-19T19:02:06;14.00;99.90
22503;DHT22;11418;48.118;9.992;2023-09-19T19:06:11;13.90;99.90
22503;DHT22;11418;48.118;9.992;2023-09-19T19:10:15;13.80;99.90
22503;DHT22;11418;48.118;9.992;2023-09-19T19:14:16;13.60;99.90
22503;DHT22;11418;48.118;9.992;2023-09-19T19:18:17;13.50;99.90
22503;DHT22;11418;48.118;9.992;2023-09-19T19:22:17;13.30;99.90
22503;DHT22;11418;48.118;9.992;2023-09-19T19:26:22;13.20;99.90
22503;DHT22;11418;48.118;9.992;2023-09-19T19:30:23;13.20;99.90
22503;DHT22;11418;48.118;9.992;2023-09-19T19:34:24;13.30;99.90
22503;DHT22;11418;48.118;9.992;2023-09-19T19:38:25;13.20;99.90
22503;DHT22;11418;48.118;9.992;2023-09-19T19:42:26;13.20;99.90
22503;DHT22;11418;48.118;9.992;2023-09-19T19:46:28;13.20;99.90
22503;DHT22;11418;48.118;9.992;2023-09-19T19:50:37;13.20;99.90
22503;DHT22;11418;48.118;9.992;2023-09-19T19:54:37;13.20;99.90
22503;DHT22;11418;48.118;9.992;2023-09-19T19:58:39;13.10;99.90
22503;DHT22;11418;48.118;9.992;2023-09-19T20:02:39;13.00;99.90
22503;DHT22;11418;48.118;9.992;2023-09-19T20:06:40;13.00;99.90
22503;DHT22;11418;48.118;9.992;2023-09-19T20:10:41;12.90;99.90
22503;DHT22;11418;48.118;9.992;2023-09-19T20:14:41;13.10;99.90
22503;DHT22;11418;48.118;9.992;2023-09-19T20:18:42;13.00;99.90
22503;DHT22;11418;48.118;9.992;2023-09-19T20:22:43;12.90;99.90
22503;DHT22;11418;48.118;9.992;2023-09-19T20:26:44;12.50;99.90
22503;DHT22;11418;48.118;9.992;2023-09-19T20:30:45;12.50;99.90
22503;DHT22;11418;48.118;9.992;2023-09-19T20:34:45;12.20;99.90
22503;DHT22;11418;48.118;9.992;2023-09-19T20:38:46;12.10;99.90
22503;DHT22;11418;48.118;9.992;2023-09-19T20:42:47;11.90;99.90
22503;DHT22;11418;48.118;9.992;2023-09-19T20:46:49;11.80;99.90
22503;DHT22;11418;48.118;9.992;2023-09-19T20:50:53;11.90;99.90
22503;DHT22;11418;48.118;9.992;2023-09-19T20:54:55;11.80;99.90
22503;DHT22;11418;48.118;9.992;2023-09-19T20:58:55;11.80;99.90
22503;DHT22;11418;48.118;9.992;2023-09-19T21:02:56;11.90;99.90
22503;DHT22;11418;48.118;9.992;2023-09-19T21:06:58;12.20;99.90
22503;DHT22;11418;48.118;9.992;2023-09-19T21:11:00;12.40;99.90
22503;DHT22;11418;48.118;9.992;2023-09-19T21:15:09;12.50;99.90
22503;DHT22;11418;48.118;9.992;2023-09-19T21:19:10;12.70;99.90
22503;DHT22;11418;48.118;9.992;2023-09-19T21:23:10;12.60;99.90
22503;DHT22;11418;48.118;9.992;2023-09-19T21:27:15;12.50;99.90
22503;DHT22;11418;48.118;9.992;2023-09-19T21:31:16;12.50;99.90
22503;DHT22;11418;48.118;9.992;2023-09-19T21:35:17;12.70;99.90
22503;DHT22;11418;48.118;9.992;2023-09-19T21:39:18;12.60;99.90
22503;DHT22;11418;48.118;9.992;2023-09-19T21:43:19;12.50;99.90
22503;DHT22;11418;48.118;9.992;2023-09-19T21:47:19;12.50;99.90
22503;DHT22;11418;48.118;9.992;2023-09-19T21:51:21;12.50;99.90
22503;DHT22;11418;48.118;9.992;2023-09-19T21:55:26;12.40;99.90
22503;DHT22;11418;48.118;9.992;2023-09-19T21:59:27;12.30;99.90
22503;DHT22;11418;48.118;9.992;2023-09-19T22:03:28;12.30;99.90
22503;DHT22;11418;48.118;9.992;2023-09-19T22:11:33;12.50;99.90
22503;DHT22;11418;48.118;9.992;2023-09-19T22:15:34;12.60;99.90
22503;DHT22;11418;48.118;9.992;2023-09-19T22:19:42;12.50;99.90
22503;DHT22;11418;48.118;9.992;2023-09-19T22:23:44;12.40;99.90
22503;DHT22;11418;48.118;9.992;2023-09-19T22:27:47;12.30;99.90
22503;DHT22;11418;48.118;9.992;2023-09-19T22:31:48;12.30;99.90
22503;DHT22;11418;48.118;9.992;2023-09-19T22:35:50;12.20;99.90
22503;DHT22;11418;48.118;9.992;2023-09-19T22:39:52;12.00;99.90
22503;DHT22;11418;48.118;9.992;2023-09-19T22:43:52;11.90;99.90
22503;DHT22;11418;48.118;9.992;2023-09-19T22:47:55;11.90;99.90
22503;DHT22;11418;48.118;9.992;2023-09-19T22:51:58;12.00;99.90
22503;DHT22;11418;48.118;9.992;2023-09-19T22:56:00;12.00;99.90
22503;DHT22;11418;48.118;9.992;2023-09-19T23:00:03;12.00;99.90
22503;DHT22;11418;48.118;9.992;2023-09-19T23:04:04;11.80;99.90
22503;DHT22;11418;48.118;9.992;2023-09-19T23:08:11;11.70;99.90
22503;DHT22;11418;48.118;9.992;2023-09-19T23:12:12;11.50;99.90
22503;DHT22;11418;48.118;9.992;2023-09-19T23:16:20;11.60;99.90
22503;DHT22;11418;48.118;9.992;2023-09-19T23:20:28;11.50;99.90
22503;DHT22;11418;48.118;9.992;2023-09-19T23:24:36;11.50;99.90
22503;DHT22;11418;48.118;9.992;2023-09-19T23:28:38;11.70;99.90
22503;DHT22;11418;48.118;9.992;2023-09-19T23:32:43;11.80;99.90
22503;DHT22;11418;48.118;9.992;2023-09-19T23:36:44;11.80;99.90
22503;DHT22;11418;48.118;9.992;2023-09-19T23:40:48;11.80;99.90
22503;DHT22;11418;48.118;9.992;2023-09-19T23:44:51;11.70;99.90
22503;DHT22;11418;48.118;9.992;2023-09-19T23:48:51;11.60;99.90
22503;DHT22;11418;48.118;9.992;2023-09-19T23:52:52;11.60;99.90
22503;DHT22;11418;48.118;9.992;2023-09-19T23:56:53;11.60;99.90
